Time;durP1;ratioP1;P1;durP2;ratioP2;P2;SDS_P1;SDS_P2;PMS_P1;PMS_P2;Temp;Humidity;BMP_temperature;BMP_pressure;BME280_temperature;BME280_humidity;BME280_pressure;Samples;Min_cycle;Max_cycle;Signal;HPM_P1;HPM_P2
2022/03/07 00:00:09;;;;;;;2.53;1.87;;;-0.20;99.90;;;;;;4844660;29;20045;-79
2022/03/07 00:02:35;;;;;;;1.85;1.27;;;-0.20;99.90;;;;;;4845517;29;20745;-79
2022/03/07 00:05:01;;;;;;;3.55;1.40;;;-0.30;99.90;;;;;;4857985;29;20064;-79
2022/03/07 00:07:27;;;;;;;2.70;1.27;;;-0.30;99.90;;;;;;4860900;29;20047;-79
2022/03/07 00:09:52;;;;;;;2.67;1.27;;;-0.30;99.90;;;;;;4857716;29;20042;-79
2022/03/07 00:12:18;;;;;;;2.00;1.20;;;-0.40;99.90;;;;;;4841898;29;20290;-80
2022/03/07 00:14:44;;;;;;;2.00;1.13;;;-0.40;99.90;;;;;;4836570;29;20289;-79
2022/03/07 00:17:09;;;;;;;2.78;0.95;;;-0.40;99.90;;;;;;4842251;29;20498;-79
2022/03/07 00:19:35;;;;;;;2.13;1.43;;;-0.50;99.90;;;;;;4845031;29;20048;-79
2022/03/07 00:22:01;;;;;;;3.90;1.50;;;-0.50;99.90;;;;;;4844370;29;20293;-79
2022/03/07 00:24:26;;;;;;;2.55;1.55;;;-0.50;99.90;;;;;;4822879;29;20120;-80
2022/03/07 00:26:52;;;;;;;1.87;1.20;;;-0.60;99.90;;;;;;4845416;29;20045;-78
2022/03/07 00:29:17;;;;;;;1.92;1.00;;;-0.60;99.90;;;;;;4827133;29;20096;-79
2022/03/07 00:31:45;;;;;;;2.22;1.00;;;-0.70;99.90;;;;;;4849780;29;20101;-78
2022/03/07 00:34:11;;;;;;;1.73;0.88;;;-0.80;99.90;;;;;;4838175;29;20077;-78
2022/03/07 00:36:36;;;;;;;1.67;0.90;;;-0.70;99.90;;;;;;4843242;29;20065;-78
2022/03/07 00:39:03;;;;;;;1.55;0.93;;;-0.80;99.90;;;;;;4860859;29;20048;-79
2022/03/07 00:41:28;;;;;;;1.30;1.00;;;-0.80;99.90;;;;;;4875893;29;20045;-79
2022/03/07 00:43:54;;;;;;;2.20;1.10;;;-0.80;99.90;;;;;;4844937;29;20128;-79
2022/03/07 00:46:20;;;;;;;1.55;1.00;;;-0.80;99.90;;;;;;4872829;29;20382;-79
2022/03/07 00:48:46;;;;;;;2.03;1.10;;;-0.90;99.90;;;;;;4874981;29;20049;-79
2022/03/07 00:51:11;;;;;;;2.53;1.30;;;-0.90;99.90;;;;;;4860815;29;20108;-79
2022/03/07 00:53:40;;;;;;;2.13;1.00;;;-0.90;99.90;;;;;;4875728;29;21148;-78
2022/03/07 00:56:07;;;;;;;1.48;1.00;;;-1.00;99.90;;;;;;4865718;29;20632;-79
2022/03/07 00:58:33;;;;;;;3.42;1.02;;;-0.90;99.90;;;;;;4888710;29;20041;-79
2022/03/07 01:00:58;;;;;;;4.78;2.30;;;-1.00;99.90;;;;;;4859535;29;20085;-79
2022/03/07 01:03:24;;;;;;;3.88;2.20;;;-1.00;99.90;;;;;;4860371;29;20048;-79
2022/03/07 01:05:50;;;;;;;4.73;2.20;;;-1.00;99.90;;;;;;4880090;29;20056;-79
2022/03/07 01:08:16;;;;;;;4.93;2.13;;;-1.00;99.90;;;;;;4873314;29;20739;-79
2022/03/07 01:10:42;;;;;;;5.57;2.47;;;-1.00;99.90;;;;;;4856435;29;20056;-79
2022/03/07 01:13:08;;;;;;;5.00;2.85;;;-1.00;99.90;;;;;;4859277;29;20062;-80
2022/03/07 01:15:34;;;;;;;5.70;2.60;;;-1.10;99.90;;;;;;4877123;29;20041;-79
2022/03/07 01:18:00;;;;;;;6.95;3.10;;;-1.00;99.90;;;;;;4874668;29;20410;-79
2022/03/07 01:20:27;;;;;;;5.10;2.58;;;-1.00;99.90;;;;;;4860402;29;20037;-80
2022/03/07 01:22:53;;;;;;;4.40;2.05;;;-1.10;99.90;;;;;;4875814;29;20076;-79
2022/03/07 01:25:22;;;;;;;4.05;1.95;;;-1.00;99.90;;;;;;4874073;29;20064;-79
2022/03/07 01:27:47;;;;;;;3.67;1.70;;;-1.10;99.90;;;;;;4842878;29;20049;-79
2022/03/07 01:30:13;;;;;;;3.72;1.70;;;-1.10;99.90;;;;;;4858037;29;20045;-80
2022/03/07 01:32:39;;;;;;;5.45;2.20;;;-1.10;99.90;;;;;;4844438;29;20045;-79
2022/03/07 01:35:06;;;;;;;4.97;2.58;;;-1.10;99.90;;;;;;4862070;29;20057;-79
2022/03/07 01:37:31;;;;;;;5.40;2.58;;;-1.20;99.90;;;;;;4863895;29;20076;-79
2022/03/07 01:39:57;;;;;;;4.57;2.40;;;-1.20;99.90;;;;;;4865012;29;20077;-79
2022/03/07 01:42:23;;;;;;;6.32;2.63;;;-1.30;99.90;;;;;;4880436;29;20293;-79
2022/03/07 01:44:49;;;;;;;3.67;2.00;;;-1.30;99.90;;;;;;4877444;29;20101;-79
2022/03/07 01:47:14;;;;;;;4.20;1.98;;;-1.30;99.90;;;;;;4860024;29;20121;-79
2022/03/07 01:49:40;;;;;;;4.00;2.00;;;-1.30;99.90;;;;;;4862509;29;20049;-79
2022/03/07 01:52:07;;;;;;;3.60;1.80;;;-1.30;99.90;;;;;;4878060;29;20086;-79
2022/03/07 01:54:34;;;;;;;3.22;1.70;;;-1.40;99.90;;;;;;4844564;29;20089;-79
2022/03/07 01:56:59;;;;;;;2.88;1.67;;;-1.40;99.90;;;;;;4878109;29;20044;-79
2022/03/07 01:59:29;;;;;;;3.33;1.70;;;-1.50;99.90;;;;;;4863762;29;20115;-79
2022/03/07 02:01:58;;;;;;;3.58;1.73;;;-1.50;99.90;;;;;;4878375;29;20067;-79
2022/03/07 02:04:24;;;;;;;4.68;1.67;;;-1.50;99.90;;;;;;4862270;29;20095;-80
2022/03/07 02:06:49;;;;;;;2.93;1.47;;;-1.50;99.90;;;;;;4863045;29;20399;-79
2022/03/07 02:09:16;;;;;;;3.77;1.57;;;-1.50;99.90;;;;;;4877970;29;20289;-80
2022/03/07 02:11:42;;;;;;;3.55;1.60;;;-1.60;99.90;;;;;;4877985;29;20293;-79
2022/03/07 02:14:25;;;;;;;2.00;1.40;;;-1.60;99.90;;;;;;4862609;29;20043;-79
2022/03/07 02:16:51;;;;;;;3.15;1.55;;;-1.50;99.90;;;;;;4862086;29;20473;-79
2022/03/07 02:19:18;;;;;;;2.45;1.25;;;-1.60;99.90;;;;;;4878402;29;20186;-80
2022/03/07 02:21:46;;;;;;;2.10;1.20;;;-1.60;99.90;;;;;;4874755;29;20061;-79
2022/03/07 02:24:12;;;;;;;4.25;1.52;;;-1.60;99.90;;;;;;4862276;29;20048;-79
2022/03/07 02:26:39;;;;;;;3.38;1.65;;;-1.60;99.90;;;;;;4882373;29;20514;-79
2022/03/07 02:29:06;;;;;;;3.75;1.90;;;-1.60;99.90;;;;;;4876499;29;20552;-79
2022/03/07 02:31:34;;;;;;;2.80;1.90;;;-1.70;99.90;;;;;;4860857;29;20081;-75
2022/03/07 02:34:01;;;;;;;3.40;1.60;;;-1.80;99.90;;;;;;4843017;29;20057;-75
2022/03/07 02:36:26;;;;;;;4.38;2.05;;;-1.80;99.90;;;;;;4876410;29;21455;-75
2022/03/07 02:38:52;;;;;;;2.97;1.50;;;-1.80;99.90;;;;;;4845325;29;20059;-75
2022/03/07 02:41:18;;;;;;;3.88;1.52;;;-1.80;99.90;;;;;;4838519;29;20053;-75
2022/03/07 02:43:44;;;;;;;2.70;1.60;;;-1.90;99.90;;;;;;4858441;29;20495;-75
2022/03/07 02:46:10;;;;;;;1.67;1.15;;;-1.90;99.90;;;;;;4858567;29;20095;-75
2022/03/07 02:48:35;;;;;;;2.10;1.25;;;-1.90;99.90;;;;;;4830446;29;20489;-75
2022/03/07 02:51:01;;;;;;;3.50;1.60;;;-1.90;99.90;;;;;;4858471;29;20091;-75
2022/03/07 02:53:27;;;;;;;4.00;1.52;;;-2.00;99.90;;;;;;4859399;29;20513;-75
2022/03/07 02:55:54;;;;;;;3.08;1.50;;;-2.00;99.90;;;;;;4842572;29;20140;-75
2022/03/07 02:58:20;;;;;;;2.17;1.30;;;-2.00;99.90;;;;;;4861016;29;20047;-75
2022/03/07 03:00:46;;;;;;;2.63;1.48;;;-2.00;99.90;;;;;;4844398;29;20052;-75
2022/03/07 03:03:12;;;;;;;2.97;1.48;;;-1.90;99.90;;;;;;4845089;29;20052;-75
2022/03/07 03:05:37;;;;;;;2.00;1.25;;;-2.00;99.90;;;;;;4843993;29;20069;-75
2022/03/07 03:08:03;;;;;;;3.55;1.70;;;-1.90;99.90;;;;;;4859742;29;20047;-75
2022/03/07 03:10:29;;;;;;;3.05;1.58;;;-2.00;99.90;;;;;;4859884;29;20093;-75
2022/03/07 03:12:56;;;;;;;3.22;1.70;;;-2.00;99.90;;;;;;4843852;29;20040;-75
2022/03/07 03:15:21;;;;;;;2.63;1.48;;;-2.00;99.90;;;;;;4841924;29;20056;-75
2022/03/07 03:17:47;;;;;;;3.10;1.60;;;-2.10;99.90;;;;;;4840198;29;20136;-75
2022/03/07 03:20:14;;;;;;;4.70;2.00;;;-2.10;99.90;;;;;;4857066;29;20298;-75
2022/03/07 03:22:42;;;;;;;4.22;2.08;;;-2.10;99.90;;;;;;4858469;29;20290;-75
2022/03/07 03:25:09;;;;;;;4.07;2.10;;;-2.10;99.90;;;;;;4855375;29;20076;-75
2022/03/07 03:27:36;;;;;;;3.70;1.92;;;-2.20;99.90;;;;;;4856159;29;20210;-74
2022/03/07 03:30:03;;;;;;;4.50;2.13;;;-2.30;99.90;;;;;;4857164;29;20375;-75
2022/03/07 03:32:30;;;;;;;4.25;2.00;;;-2.30;99.90;;;;;;4859387;29;20453;-75
2022/03/07 03:34:55;;;;;;;3.67;1.77;;;-2.20;99.90;;;;;;4843129;29;20390;-75
2022/03/07 03:37:22;;;;;;;4.72;1.92;;;-2.20;99.90;;;;;;4866286;29;20120;-75
2022/03/07 03:39:47;;;;;;;;;;;-2.30;99.90;;;;;;4875751;29;20045;-75
2022/03/07 03:42:13;;;;;;;3.83;1.80;;;-2.30;99.90;;;;;;4860114;29;19931;-75
2022/03/07 03:44:39;;;;;;;4.47;2.15;;;-2.30;99.90;;;;;;4874561;29;20052;-75
2022/03/07 03:47:05;;;;;;;4.67;1.97;;;-2.30;99.90;;;;;;4875175;29;20373;-75
2022/03/07 03:49:30;;;;;;;5.22;2.78;;;-2.20;99.90;;;;;;4836355;29;20368;-75
2022/03/07 03:51:56;;;;;;;6.00;2.83;;;-2.20;99.90;;;;;;4872650;29;20074;-75
2022/03/07 03:54:22;;;;;;;5.13;2.30;;;-2.30;99.90;;;;;;4875959;29;20052;-75
2022/03/07 03:56:49;;;;;;;4.18;2.47;;;-2.30;99.90;;;;;;4877491;29;20479;-75
2022/03/07 03:59:15;;;;;;;4.38;2.35;;;-2.30;99.90;;;;;;4881515;29;20061;-74
2022/03/07 04:01:44;;;;;;;4.88;2.33;;;-2.30;99.90;;;;;;4856919;29;20068;-75
2022/03/07 04:04:13;;;;;;;3.42;1.98;;;-2.40;99.90;;;;;;4859545;29;20089;-74
2022/03/07 04:06:41;;;;;;;4.57;2.28;;;-2.40;99.90;;;;;;4865211;29;20037;-74
2022/03/07 04:09:18;;;;;;;3.45;1.92;;;-2.40;99.90;;;;;;4880655;29;20079;-74
2022/03/07 04:11:44;;;;;;;4.10;2.17;;;-2.40;99.90;;;;;;4875167;29;20509;-75
2022/03/07 04:14:11;;;;;;;3.67;1.80;;;-2.50;99.90;;;;;;4862006;29;20044;-75
2022/03/07 04:16:38;;;;;;;5.43;2.33;;;-2.50;99.90;;;;;;4874941;29;20049;-75
2022/03/07 04:19:06;;;;;;;3.28;2.17;;;-2.50;99.90;;;;;;4840038;29;20073;-75
2022/03/07 04:21:32;;;;;;;3.08;1.90;;;-2.60;99.90;;;;;;4875057;29;20056;-74
2022/03/07 04:23:58;;;;;;;6.35;2.40;;;-2.60;99.90;;;;;;4859624;29;20140;-75
2022/03/07 04:26:23;;;;;;;4.28;2.10;;;-2.60;99.90;;;;;;4859125;29;20041;-75
2022/03/07 04:28:49;;;;;;;3.33;1.98;;;-2.50;99.90;;;;;;4859356;29;20041;-75
2022/03/07 04:31:14;;;;;;;3.90;2.60;;;-2.50;99.90;;;;;;4860241;29;20045;-75
2022/03/07 04:33:41;;;;;;;3.80;2.15;;;-2.60;99.90;;;;;;4874560;29;20417;-75
2022/03/07 04:36:09;;;;;;;5.20;2.50;;;-2.50;99.90;;;;;;4849609;29;20085;-75
2022/03/07 04:38:35;;;;;;;4.65;2.53;;;-2.60;99.90;;;;;;4873278;29;20135;-75
2022/03/07 04:41:02;;;;;;;5.80;2.25;;;-2.50;99.90;;;;;;4858430;29;20568;-75
2022/03/07 04:43:27;;;;;;;4.60;2.15;;;-2.60;99.90;;;;;;4856484;29;20128;-75
2022/03/07 04:45:53;;;;;;;5.05;2.28;;;-2.60;99.90;;;;;;4859461;29;20131;-75
2022/03/07 04:48:20;;;;;;;3.67;2.20;;;-2.70;99.90;;;;;;4844531;29;20106;-75
2022/03/07 04:50:46;;;;;;;3.47;2.15;;;-2.70;99.90;;;;;;4859805;29;20051;-75
2022/03/07 04:53:12;;;;;;;;;;;-2.70;99.90;;;;;;4855731;29;20483;-75
2022/03/07 04:55:38;;;;;;;3.10;1.77;;;-2.70;99.90;;;;;;4856494;29;19983;-75
2022/03/07 04:58:04;;;;;;;2.90;1.80;;;-2.70;99.90;;;;;;4850991;29;20128;-75
2022/03/07 05:00:30;;;;;;;3.53;1.77;;;-2.70;99.90;;;;;;4859134;29;20051;-75
2022/03/07 05:02:56;;;;;;;3.13;1.50;;;-2.70;99.90;;;;;;4829028;29;20367;-75
2022/03/07 05:05:22;;;;;;;3.25;1.70;;;-2.70;99.90;;;;;;4856520;29;20048;-75
2022/03/07 05:07:49;;;;;;;3.22;1.50;;;-2.70;99.90;;;;;;4841038;29;20089;-75
2022/03/07 05:10:16;;;;;;;2.88;1.70;;;-2.80;99.90;;;;;;4861737;29;20049;-75
2022/03/07 05:12:42;;;;;;;;;;;-2.80;99.90;;;;;;4863905;29;20053;-75
2022/03/07 05:15:08;;;;;;;2.63;1.33;;;-2.70;99.90;;;;;;4868123;29;20011;-75
2022/03/07 05:17:43;;;;;;;1.85;1.02;;;-2.70;99.90;;;;;;4862867;29;20076;-75
2022/03/07 05:20:11;;;;;;;2.58;1.40;;;-2.80;99.90;;;;;;4845076;29;20484;-75
2022/03/07 05:22:40;;;;;;;3.53;1.50;;;-2.80;99.90;;;;;;4847387;29;20045;-75
2022/03/07 05:25:07;;;;;;;2.40;1.55;;;-2.80;99.90;;;;;;4847430;29;20036;-75
2022/03/07 05:27:33;;;;;;;3.25;1.70;;;-2.70;99.90;;;;;;4861857;29;20068;-74
2022/03/07 05:29:58;;;;;;;3.35;1.58;;;-2.80;99.90;;;;;;4861426;29;20084;-76
2022/03/07 05:32:24;;;;;;;2.50;1.57;;;-2.80;99.90;;;;;;4847764;29;20041;-75
2022/03/07 05:34:50;;;;;;;2.70;1.47;;;-2.80;99.90;;;;;;4862855;29;20297;-76
2022/03/07 05:37:15;;;;;;;2.00;1.33;;;-2.90;99.90;;;;;;4865428;29;20306;-76
2022/03/07 05:39:41;;;;;;;2.95;1.42;;;-2.80;99.90;;;;;;4864163;29;20052;-76
2022/03/07 05:42:07;;;;;;;2.38;1.30;;;-2.90;99.90;;;;;;4871742;29;20037;-76
2022/03/07 05:44:33;;;;;;;;;;;-2.90;99.90;;;;;;4862946;29;20053;-76
2022/03/07 05:46:59;;;;;;;2.25;1.20;;;-2.90;99.90;;;;;;4862218;29;19979;-76
2022/03/07 05:49:25;;;;;;;2.28;1.48;;;-2.90;99.90;;;;;;4867038;29;20064;-76
2022/03/07 05:51:50;;;;;;;2.95;1.60;;;-2.90;99.90;;;;;;4860922;29;20077;-75
2022/03/07 05:54:16;;;;;;;3.15;1.70;;;-2.90;99.90;;;;;;4867836;29;20049;-76
2022/03/07 05:56:42;;;;;;;1.73;1.25;;;-3.00;99.90;;;;;;4858143;29;20056;-75
2022/03/07 05:59:08;;;;;;;2.20;1.30;;;-3.00;99.90;;;;;;4856455;29;20041;-76
2022/03/07 06:01:34;;;;;;;2.53;1.50;;;-3.10;99.90;;;;;;4874961;29;20539;-75
2022/03/07 06:03:59;;;;;;;2.25;1.20;;;-3.00;99.90;;;;;;4844330;29;20044;-73
2022/03/07 06:06:25;;;;;;;1.98;1.00;;;-3.00;99.90;;;;;;4858985;29;20093;-74
2022/03/07 06:08:51;;;;;;;2.95;1.35;;;-3.00;99.90;;;;;;4877288;29;20085;-74
2022/03/07 06:11:17;;;;;;;1.53;1.20;;;-3.00;99.90;;;;;;4860151;29;20075;-74
2022/03/07 06:13:43;;;;;;;2.47;1.17;;;-3.00;99.90;;;;;;4852986;29;20054;-75
2022/03/07 06:16:09;;;;;;;1.67;1.00;;;-3.00;99.90;;;;;;4881305;29;20045;-75
2022/03/07 06:18:34;;;;;;;1.75;0.95;;;-2.90;99.90;;;;;;4867803;29;20068;-75
2022/03/07 06:21:05;;;;;;;2.30;1.10;;;-3.00;99.90;;;;;;4877793;29;20084;-75
2022/03/07 06:23:31;;;;;;;2.60;1.27;;;-2.90;99.90;;;;;;4861299;29;20388;-74
2022/03/07 06:25:56;;;;;;;2.28;1.08;;;-2.90;99.90;;;;;;4874786;29;20056;-74
2022/03/07 06:28:22;;;;;;;2.10;1.30;;;-2.90;99.90;;;;;;4861310;29;20037;-74
2022/03/07 06:30:48;;;;;;;2.17;0.90;;;-2.80;99.90;;;;;;4873256;29;20040;-74
2022/03/07 06:33:15;;;;;;;3.15;1.50;;;-2.80;99.90;;;;;;4859697;29;20148;-74
2022/03/07 06:35:42;;;;;;;3.10;1.42;;;-2.70;99.90;;;;;;4878709;29;20068;-74
2022/03/07 06:38:08;;;;;;;2.90;1.70;;;-2.60;99.90;;;;;;4874205;29;20193;-74
2022/03/07 06:40:33;;;;;;;2.67;1.58;;;-2.60;99.90;;;;;;4860240;29;20057;-74
2022/03/07 06:43:02;;;;;;;2.85;1.70;;;-2.50;99.90;;;;;;4876929;29;20045;-75
2022/03/07 06:45:30;;;;;;;3.63;1.80;;;-2.50;99.90;;;;;;4876223;29;20079;-75
2022/03/07 06:47:56;;;;;;;3.35;1.80;;;-2.50;99.90;;;;;;4875830;29;20042;-75
2022/03/07 06:50:22;;;;;;;3.40;1.92;;;-2.40;99.90;;;;;;4873236;29;20056;-75
2022/03/07 06:52:47;;;;;;;3.83;2.28;;;-2.40;99.90;;;;;;4871915;29;20049;-74
2022/03/07 06:55:13;;;;;;;3.53;2.00;;;-2.40;99.90;;;;;;4874246;29;20044;-75
2022/03/07 06:57:40;;;;;;;2.50;1.67;;;-2.30;99.90;;;;;;4853427;29;20461;-76
2022/03/07 07:00:08;;;;;;;3.70;2.15;;;-2.30;99.90;;;;;;4876045;29;20081;-76
2022/03/07 07:02:35;;;;;;;3.00;1.77;;;-2.20;99.90;;;;;;4875933;29;20041;-75
2022/03/07 07:05:02;;;;;;;2.63;1.63;;;-2.20;99.90;;;;;;4875931;29;20119;-75
2022/03/07 07:07:29;;;;;;;3.38;1.80;;;-2.10;99.90;;;;;;4860249;29;20131;-74
2022/03/07 07:09:55;;;;;;;3.25;1.90;;;-2.00;99.90;;;;;;4867240;29;20049;-73
2022/03/07 07:12:21;;;;;;;3.53;2.00;;;-1.90;99.90;;;;;;4856431;29;20052;-74
2022/03/07 07:14:47;;;;;;;2.55;1.60;;;-1.70;99.90;;;;;;4874163;29;20053;-74
2022/03/07 07:17:12;;;;;;;2.75;1.40;;;-1.70;99.90;;;;;;4865123;29;20047;-74
2022/03/07 07:19:38;;;;;;;2.72;1.38;;;-1.60;99.90;;;;;;4873060;29;20057;-74
2022/03/07 07:22:04;;;;;;;2.45;1.30;;;-1.50;99.90;;;;;;4875461;29;20135;-75
2022/03/07 07:24:30;;;;;;;2.17;1.30;;;-1.50;99.90;;;;;;4859781;29;20346;-75
2022/03/07 07:26:55;;;;;;;1.50;1.20;;;-1.30;99.90;;;;;;4875511;29;20128;-75
2022/03/07 07:29:22;;;;;;;1.80;1.20;;;-1.30;99.90;;;;;;4875757;29;20052;-74
2022/03/07 07:31:48;;;;;;;1.33;1.00;;;-1.20;99.90;;;;;;4878159;29;20061;-75
2022/03/07 07:34:15;;;;;;;1.98;1.10;;;-1.10;99.90;;;;;;4873434;29;20064;-76
2022/03/07 07:36:40;;;;;;;1.25;0.88;;;-1.00;99.90;;;;;;4881240;29;20063;-76
2022/03/07 07:39:06;;;;;;;0.63;0.60;;;-0.80;99.90;;;;;;4846092;29;20049;-76
2022/03/07 07:41:32;;;;;;;1.20;0.83;;;-0.70;99.90;;;;;;4860270;29;20105;-75
2022/03/07 07:44:01;;;;;;;1.25;0.95;;;-0.50;99.90;;;;;;4859728;29;20045;-76
2022/03/07 07:46:26;;;;;;;1.55;1.02;;;-0.20;99.90;;;;;;4863261;29;20454;-76
2022/03/07 07:48:52;;;;;;;1.20;1.10;;;0.10;99.90;;;;;;4865687;29;20050;-76
2022/03/07 07:51:18;;;;;;;2.20;1.63;;;0.30;99.90;;;;;;4864956;29;20128;-74
2022/03/07 07:53:44;;;;;;;1.60;1.30;;;0.40;99.90;;;;;;4859725;29;20557;-75
2022/03/07 07:56:09;;;;;;;2.23;1.20;;;0.80;99.90;;;;;;4845485;29;20055;-75
2022/03/07 07:58:35;;;;;;;2.47;1.20;;;0.90;99.90;;;;;;4845780;29;20372;-74
2022/03/07 08:01:01;;;;;;;4.07;1.33;;;1.10;99.90;;;;;;4845636;29;20584;-76
2022/03/07 08:03:27;;;;;;;4.93;1.42;;;1.30;99.90;;;;;;4843159;29;20049;-76
2022/03/07 08:05:52;;;;;;;4.43;2.20;;;1.40;99.90;;;;;;4846456;29;20400;-76
2022/03/07 08:08:18;;;;;;;2.40;1.73;;;1.50;99.90;;;;;;4845699;29;20521;-76
2022/03/07 08:10:44;;;;;;;8.48;2.20;;;1.70;99.90;;;;;;4856834;29;20294;-76
2022/03/07 08:13:11;;;;;;;4.53;2.50;;;1.80;99.90;;;;;;4823744;29;20128;-76
2022/03/07 08:15:37;;;;;;;3.55;2.53;;;1.90;99.90;;;;;;4865505;29;20041;-76
2022/03/07 08:18:03;;;;;;;4.10;2.63;;;2.10;99.90;;;;;;4842879;29;20045;-76
2022/03/07 08:20:28;;;;;;;5.28;2.72;;;2.30;99.90;;;;;;4843651;29;20049;-76
2022/03/07 08:22:55;;;;;;;3.30;2.00;;;2.40;99.90;;;;;;4858079;29;20084;-75
2022/03/07 08:25:21;;;;;;;6.13;2.20;;;2.60;99.90;;;;;;4844780;29;20106;-76
2022/03/07 08:27:48;;;;;;;2.72;2.00;;;2.70;99.90;;;;;;4834903;29;20060;-76
2022/03/07 08:30:15;;;;;;;;;;;2.80;99.90;;;;;;4864500;29;20044;-75
2022/03/07 08:32:40;;;;;;;6.13;2.20;;;2.90;99.90;;;;;;4861221;29;20249;-75
2022/03/07 08:35:08;;;;;;;4.03;1.97;;;2.90;99.90;;;;;;4842853;29;20293;-74
2022/03/07 08:37:35;;;;;;;4.70;2.10;;;2.90;99.90;;;;;;4862172;29;20309;-74
2022/03/07 08:40:02;;;;;;;8.48;3.25;;;3.00;99.90;;;;;;4839818;29;20171;-74
2022/03/07 08:42:27;;;;;;;5.55;2.40;;;3.00;99.90;;;;;;4869686;29;20493;-75
2022/03/07 08:44:53;;;;;;;5.20;2.10;;;3.10;99.90;;;;;;4857141;29;20044;-74
2022/03/07 08:47:19;;;;;;;4.72;1.88;;;3.10;99.90;;;;;;4874383;29;20127;-74
2022/03/07 08:49:45;;;;;;;5.05;2.20;;;3.20;99.90;;;;;;4872710;29;20051;-74
2022/03/07 08:52:15;;;;;;;5.65;2.83;;;3.20;99.90;;;;;;4875116;29;20060;-74
2022/03/07 08:54:44;;;;;;;8.52;2.50;;;3.30;99.90;;;;;;4874946;29;20071;-75
2022/03/07 08:57:11;;;;;;;5.78;2.72;;;3.40;99.90;;;;;;4873363;29;20127;-75
2022/03/07 08:59:37;;;;;;;3.92;2.33;;;3.50;99.90;;;;;;4855974;29;20494;-75
2022/03/07 09:02:04;;;;;;;5.75;2.13;;;3.60;99.90;;;;;;4873714;29;20100;-75
2022/03/07 09:04:29;;;;;;;4.68;1.85;;;3.70;99.90;;;;;;4872957;29;20046;-75
2022/03/07 09:06:55;;;;;;;5.35;2.03;;;3.70;99.90;;;;;;4857137;29;20048;-75
2022/03/07 09:09:21;;;;;;;2.30;1.52;;;3.70;99.90;;;;;;4872996;29;20068;-74
2022/03/07 09:11:47;;;;;;;5.38;2.00;;;3.80;99.90;;;;;;4852728;29;20551;-75
2022/03/07 09:14:13;;;;;;;4.80;2.08;;;3.90;99.90;;;;;;4858516;29;20481;-76
2022/03/07 09:16:39;;;;;;;4.22;2.17;;;3.90;99.90;;;;;;4842292;29;20053;-76
2022/03/07 09:19:05;;;;;;;4.05;2.00;;;4.00;99.90;;;;;;4862103;29;20045;-75
2022/03/07 09:21:31;;;;;;;5.97;1.65;;;4.00;99.90;;;;;;4862800;29;20055;-76
2022/03/07 09:23:57;;;;;;;3.67;1.50;;;4.10;99.90;;;;;;4878826;29;20120;-76
2022/03/07 09:26:22;;;;;;;3.45;1.50;;;4.20;99.90;;;;;;4877897;29;20120;-75
2022/03/07 09:28:48;;;;;;;2.67;1.50;;;4.20;99.90;;;;;;4877772;29;20049;-76
2022/03/07 09:31:14;;;;;;;3.00;1.17;;;4.30;99.90;;;;;;4857449;29;20037;-75
2022/03/07 09:33:40;;;;;;;4.78;1.25;;;4.30;99.90;;;;;;4878009;29;20484;-75
2022/03/07 09:36:06;;;;;;;6.13;1.65;;;4.40;99.90;;;;;;4875176;29;20049;-75
2022/03/07 09:38:35;;;;;;;3.08;1.40;;;4.40;99.90;;;;;;4875560;29;20053;-75
2022/03/07 09:41:01;;;;;;;3.60;1.90;;;4.50;99.90;;;;;;4876300;29;20091;-76
2022/03/07 09:43:27;;;;;;;5.05;2.03;;;4.50;99.90;;;;;;4861881;29;20080;-75
2022/03/07 09:45:53;;;;;;;4.35;2.03;;;4.60;99.90;;;;;;4861627;29;20135;-74
2022/03/07 09:48:22;;;;;;;3.30;1.88;;;4.70;99.90;;;;;;4861619;29;20456;-75
2022/03/07 09:50:48;;;;;;;4.47;1.98;;;4.80;99.90;;;;;;4875694;29;20077;-75
2022/03/07 09:53:16;;;;;;;4.05;1.90;;;4.80;99.90;;;;;;4880335;29;20096;-76
2022/03/07 09:55:42;;;;;;;4.57;1.55;;;4.90;99.90;;;;;;4877539;29;20053;-76
2022/03/07 09:58:08;;;;;;;4.18;1.70;;;4.90;99.90;;;;;;4861905;29;20087;-76
2022/03/07 10:00:35;;;;;;;3.97;1.73;;;5.00;99.90;;;;;;4877134;29;20037;-76
2022/03/07 10:03:05;;;;;;;3.78;1.60;;;5.10;99.90;;;;;;4877439;29;20049;-76
2022/03/07 10:05:36;;;;;;;3.83;1.45;;;5.10;99.90;;;;;;4862564;29;20087;-76
2022/03/07 10:08:04;;;;;;;3.72;1.45;;;5.10;99.90;;;;;;4862272;29;20060;-76
2022/03/07 10:10:40;;;;;;;4.40;1.20;;;5.20;99.90;;;;;;4874889;29;20525;-76
2022/03/07 10:13:14;;;;;;;3.33;1.17;;;5.30;99.90;;;;;;4877059;29;20044;-76
2022/03/07 10:15:41;;;;;;;4.05;1.45;;;5.50;99.90;;;;;;4875801;29;20509;-76
2022/03/07 10:18:16;;;;;;;4.00;1.40;;;5.50;99.90;;;;;;4877237;29;20402;-76
2022/03/07 10:20:49;;;;;;;3.15;1.20;;;5.60;99.90;;;;;;4861585;29;20374;-76
2022/03/07 10:23:15;;;;;;;3.70;1.63;;;5.70;99.90;;;;;;4876888;29;20045;-76
2022/03/07 10:25:44;;;;;;;4.07;1.52;;;5.80;99.90;;;;;;4876685;29;20049;-77
2022/03/07 10:28:10;;;;;;;3.42;1.77;;;6.00;99.90;;;;;;4876781;29;20136;-76
2022/03/07 10:30:37;;;;;;;2.72;1.33;;;6.20;99.90;;;;;;4874291;29;20060;-77
2022/03/07 10:33:05;;;;;;;5.85;1.33;;;6.30;99.90;;;;;;4861609;29;20040;-76
2022/03/07 10:35:34;;;;;;;5.45;1.75;;;6.50;99.90;;;;;;4842925;29;20555;-77
2022/03/07 10:38:02;;;;;;;5.45;1.80;;;6.70;99.90;;;;;;4876000;29;20076;-76
2022/03/07 10:40:29;;;;;;;6.15;1.75;;;6.60;99.90;;;;;;4876702;29;20134;-76
2022/03/07 10:42:56;;;;;;;4.20;1.55;;;6.50;99.90;;;;;;4875007;29;20049;-75
2022/03/07 10:45:22;;;;;;;;;;;6.50;99.90;;;;;;4867792;29;20141;-76
2022/03/07 10:47:56;;;;;;;3.03;1.50;;;6.80;99.90;;;;;;4857974;29;19932;-75
2022/03/07 10:50:26;;;;;;;4.43;1.70;;;7.10;99.90;;;;;;4869798;29;20481;-76
2022/03/07 10:52:58;;;;;;;3.30;1.50;;;7.30;99.90;;;;;;4860968;29;20050;-76
2022/03/07 10:55:26;;;;;;;4.10;1.50;;;7.40;99.90;;;;;;4869748;29;20147;-76
2022/03/07 10:57:52;;;;;;;5.18;1.30;;;7.00;99.90;;;;;;4876598;29;20081;-76
2022/03/07 11:00:20;;;;;;;3.67;1.30;;;6.80;99.90;;;;;;4876281;29;20076;-76
2022/03/07 11:02:48;;;;;;;4.10;1.40;;;6.60;99.90;;;;;;4860867;29;20102;-75
2022/03/07 11:05:16;;;;;;;3.67;1.25;;;6.60;99.90;;;;;;4860421;29;20041;-76
2022/03/07 11:07:44;;;;;;;5.50;1.58;;;6.90;99.90;;;;;;4872736;29;20045;-76
2022/03/07 11:10:12;;;;;;;4.95;1.70;;;7.50;99.90;;;;;;4873672;29;20362;-76
2022/03/07 11:12:39;;;;;;;4.38;1.30;;;8.00;99.90;;;;;;4874459;29;20128;-76
2022/03/07 11:15:09;;;;;;;3.00;1.35;;;8.50;99.90;;;;;;4829967;29;20045;-76
2022/03/07 11:17:44;;;;;;;4.70;1.30;;;8.40;99.90;;;;;;4837750;29;20464;-76
2022/03/07 11:20:13;;;;;;;2.25;1.30;;;8.70;99.90;;;;;;4860860;29;20452;-76
2022/03/07 11:22:38;;;;;;;3.75;1.40;;;8.90;99.90;;;;;;4875764;29;20472;-76
2022/03/07 11:25:07;;;;;;;3.13;1.20;;;9.00;99.90;;;;;;4860200;29;20131;-76
2022/03/07 11:27:35;;;;;;;1.58;0.90;;;9.30;99.90;;;;;;4875430;29;20041;-76
2022/03/07 11:30:23;;;;;;;2.45;1.00;;;9.90;99.90;;;;;;4872707;29;20041;-76
2022/03/07 11:32:52;;;;;;;2.97;1.35;;;10.40;99.90;;;;;;4868443;29;20060;-76
2022/03/07 11:35:19;;;;;;;2.90;1.48;;;10.20;99.90;;;;;;4875415;29;20045;-76
2022/03/07 11:37:45;;;;;;;3.50;1.20;;;9.80;99.90;;;;;;4860169;29;20068;-76
2022/03/07 11:40:19;;;;;;;1.63;0.98;;;9.90;99.90;;;;;;4875504;29;20049;-76
2022/03/07 11:42:44;;;;;;;1.42;0.80;;;9.50;97.20;;;;;;4860041;29;20136;-76
2022/03/07 11:45:18;;;;;;;1.50;0.73;;;9.70;99.00;;;;;;4872525;29;20132;-75
2022/03/07 11:47:46;;;;;;;1.63;0.88;;;10.10;96.70;;;;;;4889451;29;20045;-76
2022/03/07 11:50:15;;;;;;;1.85;0.90;;;10.10;95.60;;;;;;4875671;29;20374;-76
2022/03/07 11:52:41;;;;;;;2.17;0.70;;;9.70;93.50;;;;;;4859558;29;20077;-76
2022/03/07 11:55:13;;;;;;;1.80;0.70;;;10.00;95.60;;;;;;4860101;29;20104;-76
2022/03/07 11:57:42;;;;;;;2.13;1.10;;;10.60;95.20;;;;;;4875211;29;20045;-79
2022/03/07 12:00:14;;;;;;;1.75;0.93;;;10.90;94.30;;;;;;4858585;29;20395;-76
2022/03/07 12:02:42;;;;;;;2.13;1.10;;;11.20;94.50;;;;;;4873357;29;20060;-77
2022/03/07 12:05:20;;;;;;;2.65;1.13;;;11.50;94.50;;;;;;4874376;29;20060;-76
2022/03/07 12:07:45;;;;;;;3.55;1.20;;;11.50;92.60;;;;;;4871741;29;20116;-76
2022/03/07 12:10:11;;;;;;;2.08;0.90;;;11.50;91.90;;;;;;4855257;29;20123;-76
2022/03/07 12:12:37;;;;;;;3.10;0.90;;;11.50;92.70;;;;;;4859786;29;20048;-75
2022/03/07 12:15:12;;;;;;;2.20;0.80;;;11.60;91.80;;;;;;4873575;29;20113;-76
2022/03/07 12:17:38;;;;;;;1.95;0.80;;;11.60;91.10;;;;;;4870061;29;20270;-77
2022/03/07 12:20:05;;;;;;;5.43;1.05;;;11.90;92.20;;;;;;4859045;29;20045;-77
2022/03/07 12:22:32;;;;;;;3.00;1.00;;;11.70;89.90;;;;;;4859196;29;20682;-76
2022/03/07 12:25:04;;;;;;;1.67;0.98;;;11.70;91.10;;;;;;4859129;29;20056;-76
2022/03/07 12:27:33;;;;;;;3.95;1.20;;;11.50;91.60;;;;;;4855434;29;20052;-77
2022/03/07 12:29:59;;;;;;;2.65;1.20;;;11.70;91.20;;;;;;4859762;29;20050;-77
2022/03/07 12:32:25;;;;;;;5.45;1.20;;;11.60;90.80;;;;;;4858492;29;20049;-77
2022/03/07 12:34:50;;;;;;;2.10;1.00;;;11.40;91.50;;;;;;4859872;29;20068;-77
2022/03/07 12:37:20;;;;;;;1.98;1.10;;;11.20;91.80;;;;;;4872348;29;20068;-77
2022/03/07 12:39:47;;;;;;;1.65;0.80;;;11.00;91.50;;;;;;4841090;29;20076;-77
2022/03/07 12:42:14;;;;;;;2.90;1.23;;;11.00;90.90;;;;;;4856304;29;20159;-77
2022/03/07 12:44:41;;;;;;;1.98;0.70;;;10.70;90.60;;;;;;4850467;29;20037;-77
2022/03/07 12:47:07;;;;;;;;;;;11.00;90.50;;;;;;4860167;29;20068;-77
2022/03/07 12:49:32;;;;;;;1.35;0.80;;;11.30;90.80;;;;;;4859311;29;19927;-77